Grand Rapids, MI (49501)

9:33 PM EDT on August 27, 2016 (GMT -0400)
WXGR.NET | | Change Station

Elev 756 ft 42.96 °N, 85.63 °W | Updated 12 seconds ago

Mostly Cloudy
Mostly Cloudy
72.9 °F
Feels Like 72.9 °F
N
0.0
Wind Variable Wind from South
Gusts 0.0 mph

Today
High -- | Low -- °F
--% Chance of Precip.
Yesterday
High -- | Low -- °F
Precip. -- in
Pressure 30.06 in
Visibility 9.0 miles
Clouds Few 2200 ft
Few 4600 ft
Scattered Clouds 15000 ft
Mostly Cloudy 23000 ft
Dew Point 71 °F
Humidity 95%
Rainfall 0.79 in
Snow Depth Not available.
7:02 AM 8:24 PM
Waning Crescent, 20% visible
METAR KGRR 280053Z 17004KT 9SM FEW022 FEW046 SCT150 BKN230 23/21 A3007 RMK AO2 SLP180 T02330206
Pressure 30.06 in
Visibility 9.0 miles
Clouds Few 2200 ft
Few 4600 ft
Scattered Clouds 15000 ft
Mostly Cloudy 23000 ft
Dew Point 71 °F
Humidity 95%
Rainfall 0.79 in
Snow Depth Not available.
7:02 AM 8:24 PM
Waning Crescent, 20% visible
METAR KGRR 280053Z 17004KT 9SM FEW022 FEW046 SCT150 BKN230 23/21 A3007 RMK AO2 SLP180 T02330206

10-Day Weather Forecast

Almanac

Astronomy

Aug. 27, 2016 Rise Set
Actual Time
Civil Twilight
Nautical Twilight
Astronomical Twilight
Moon
Length of Visible Light
Length of Day
Tomorrow will be .
, % of the Moon is Illuminated

Today's Extremes

State Highs State Lows

Community

WunderPhotos

Upload Photos

1,935,486 photos uploaded!

WunderBlog® & News

Nearby

Air Quality

  Air Quality AQ Index Pollutant
Not available.

Snow Depth

Station Depth Elevation

Earthquake Activity

City Distance Mag. Time & Date
Minimum magnitude displayed is 2.5.

Coastal Water Temperatures

Place Temperature

Stations

Nearby Weather Stations

Station Location Temp. Windchill Dew Point Humidity Wind Precip. Elev Updated Type
                   

Watches & Warnings

There are currently no watches in effect.